sensor_id;sensor_type;location;lat;lon;timestamp;temperature;humidity
21635;DHT22;10979;48.306;9.830;2023-03-08T00:00:37;1.70;99.90
21635;DHT22;10979;48.306;9.830;2023-03-08T00:03:03;1.70;99.90
21635;DHT22;10979;48.306;9.830;2023-03-08T00:05:29;1.60;99.90
21635;DHT22;10979;48.306;9.830;2023-03-08T00:07:55;1.60;99.90
21635;DHT22;10979;48.306;9.830;2023-03-08T00:10:21;1.60;99.90
21635;DHT22;10979;48.306;9.830;2023-03-08T00:12:47;1.60;99.90
21635;DHT22;10979;48.306;9.830;2023-03-08T00:15:12;1.70;99.90
21635;DHT22;10979;48.306;9.830;2023-03-08T00:17:38;1.80;99.90
21635;DHT22;10979;48.306;9.830;2023-03-08T00:20:06;1.90;99.90
21635;DHT22;10979;48.306;9.830;2023-03-08T00:22:40;1.90;99.90
21635;DHT22;10979;48.306;9.830;2023-03-08T00:28:31;1.90;99.90
21635;DHT22;10979;48.306;9.830;2023-03-08T00:31:09;1.80;99.90
21635;DHT22;10979;48.306;9.830;2023-03-08T00:33:35;1.80;99.90
21635;DHT22;10979;48.306;9.830;2023-03-08T00:36:15;1.80;99.90
21635;DHT22;10979;48.306;9.830;2023-03-08T00:38:41;1.80;99.90
21635;DHT22;10979;48.306;9.830;2023-03-08T00:41:07;1.80;99.90
21635;DHT22;10979;48.306;9.830;2023-03-08T00:43:33;1.70;99.90
21635;DHT22;10979;48.306;9.830;2023-03-08T00:45:59;1.70;99.90
21635;DHT22;10979;48.306;9.830;2023-03-08T00:48:25;1.70;99.90
21635;DHT22;10979;48.306;9.830;2023-03-08T00:50:51;1.60;99.90
21635;DHT22;10979;48.306;9.830;2023-03-08T00:53:17;1.50;99.90
21635;DHT22;10979;48.306;9.830;2023-03-08T00:55:54;1.60;99.90
21635;DHT22;10979;48.306;9.830;2023-03-08T00:58:20;1.40;99.90
21635;DHT22;10979;48.306;9.830;2023-03-08T01:00:46;1.40;99.90
21635;DHT22;10979;48.306;9.830;2023-03-08T01:03:12;1.40;99.90
21635;DHT22;10979;48.306;9.830;2023-03-08T01:05:43;1.50;99.90
21635;DHT22;10979;48.306;9.830;2023-03-08T01:08:11;1.40;99.90
21635;DHT22;10979;48.306;9.830;2023-03-08T01:10:37;1.40;99.90
21635;DHT22;10979;48.306;9.830;2023-03-08T01:13:04;1.40;99.90
21635;DHT22;10979;48.306;9.830;2023-03-08T01:15:33;1.40;99.90
21635;DHT22;10979;48.306;9.830;2023-03-08T01:17:59;1.30;99.90
21635;DHT22;10979;48.306;9.830;2023-03-08T01:20:24;1.20;99.90
21635;DHT22;10979;48.306;9.830;2023-03-08T01:22:50;1.20;99.90
21635;DHT22;10979;48.306;9.830;2023-03-08T01:25:15;1.10;99.90
21635;DHT22;10979;48.306;9.830;2023-03-08T01:27:41;0.90;99.90
21635;DHT22;10979;48.306;9.830;2023-03-08T01:30:07;0.80;99.90
21635;DHT22;10979;48.306;9.830;2023-03-08T01:32:33;0.80;99.90
21635;DHT22;10979;48.306;9.830;2023-03-08T01:34:58;0.90;99.90
21635;DHT22;10979;48.306;9.830;2023-03-08T01:37:32;0.90;99.90
21635;DHT22;10979;48.306;9.830;2023-03-08T01:39:58;0.90;99.90
21635;DHT22;10979;48.306;9.830;2023-03-08T01:46:27;0.90;99.90
21635;DHT22;10979;48.306;9.830;2023-03-08T01:52:17;1.00;99.90
21635;DHT22;10979;48.306;9.830;2023-03-08T02:01:27;0.80;99.90
21635;DHT22;10979;48.306;9.830;2023-03-08T02:03:52;0.90;99.90
21635;DHT22;10979;48.306;9.830;2023-03-08T02:06:18;0.70;99.90
21635;DHT22;10979;48.306;9.830;2023-03-08T02:08:45;0.60;99.90
21635;DHT22;10979;48.306;9.830;2023-03-08T02:11:12;0.40;99.90
21635;DHT22;10979;48.306;9.830;2023-03-08T02:13:53;0.40;99.90
21635;DHT22;10979;48.306;9.830;2023-03-08T02:16:20;0.20;99.90
21635;DHT22;10979;48.306;9.830;2023-03-08T02:18:57;0.20;99.90
21635;DHT22;10979;48.306;9.830;2023-03-08T02:21:24;0.10;99.90
21635;DHT22;10979;48.306;9.830;2023-03-08T02:23:50;0.10;99.90
21635;DHT22;10979;48.306;9.830;2023-03-08T02:26:16;0.10;99.90
21635;DHT22;10979;48.306;9.830;2023-03-08T02:28:41;0.10;99.90
21635;DHT22;10979;48.306;9.830;2023-03-08T02:31:09;0.10;99.90
21635;DHT22;10979;48.306;9.830;2023-03-08T02:33:34;0.30;99.90
21635;DHT22;10979;48.306;9.830;2023-03-08T02:36:01;0.30;99.90
21635;DHT22;10979;48.306;9.830;2023-03-08T02:38:27;0.40;99.90
21635;DHT22;10979;48.306;9.830;2023-03-08T02:40:52;0.50;99.90
21635;DHT22;10979;48.306;9.830;2023-03-08T02:43:18;0.50;99.90
21635;DHT22;10979;48.306;9.830;2023-03-08T02:48:32;0.40;99.90
21635;DHT22;10979;48.306;9.830;2023-03-08T02:50:57;0.60;99.90
21635;DHT22;10979;48.306;9.830;2023-03-08T02:53:23;0.60;99.90
21635;DHT22;10979;48.306;9.830;2023-03-08T02:55:49;0.60;99.90
21635;DHT22;10979;48.306;9.830;2023-03-08T02:58:14;0.60;99.90
21635;DHT22;10979;48.306;9.830;2023-03-08T03:00:40;0.60;99.90
21635;DHT22;10979;48.306;9.830;2023-03-08T03:03:05;0.50;99.90
21635;DHT22;10979;48.306;9.830;2023-03-08T03:05:31;0.60;99.90
21635;DHT22;10979;48.306;9.830;2023-03-08T03:07:56;0.60;99.90
21635;DHT22;10979;48.306;9.830;2023-03-08T03:10:23;0.60;99.90
21635;DHT22;10979;48.306;9.830;2023-03-08T03:12:49;0.50;99.90
21635;DHT22;10979;48.306;9.830;2023-03-08T03:15:14;0.40;99.90
21635;DHT22;10979;48.306;9.830;2023-03-08T03:17:40;0.30;99.90
21635;DHT22;10979;48.306;9.830;2023-03-08T03:20:07;0.20;99.90
21635;DHT22;10979;48.306;9.830;2023-03-08T03:22:34;0.20;99.90
21635;DHT22;10979;48.306;9.830;2023-03-08T03:25:00;0.10;99.90
21635;DHT22;10979;48.306;9.830;2023-03-08T03:27:25;0.20;99.90
21635;DHT22;10979;48.306;9.830;2023-03-08T03:29:51;0.10;99.90
21635;DHT22;10979;48.306;9.830;2023-03-08T03:32:17;0.10;99.90
21635;DHT22;10979;48.306;9.830;2023-03-08T03:34:42;0.00;99.90
21635;DHT22;10979;48.306;9.830;2023-03-08T03:37:08;0.00;99.90
21635;DHT22;10979;48.306;9.830;2023-03-08T03:39:37;-0.10;99.90
21635;DHT22;10979;48.306;9.830;2023-03-08T03:42:04;-0.10;99.90
21635;DHT22;10979;48.306;9.830;2023-03-08T03:44:30;-0.20;99.90
21635;DHT22;10979;48.306;9.830;2023-03-08T03:46:55;-0.20;99.90
21635;DHT22;10979;48.306;9.830;2023-03-08T03:49:21;-0.40;99.90
21635;DHT22;10979;48.306;9.830;2023-03-08T03:51:47;-0.50;99.90
21635;DHT22;10979;48.306;9.830;2023-03-08T03:54:12;-0.50;99.90
21635;DHT22;10979;48.306;9.830;2023-03-08T03:56:38;-0.60;99.90
21635;DHT22;10979;48.306;9.830;2023-03-08T03:59:03;-0.60;99.90
21635;DHT22;10979;48.306;9.830;2023-03-08T04:01:30;-0.80;99.90
21635;DHT22;10979;48.306;9.830;2023-03-08T04:03:56;-0.80;99.90
21635;DHT22;10979;48.306;9.830;2023-03-08T04:06:25;-0.80;99.90
21635;DHT22;10979;48.306;9.830;2023-03-08T04:08:52;-0.70;99.90
21635;DHT22;10979;48.306;9.830;2023-03-08T04:11:22;-0.70;99.90
21635;DHT22;10979;48.306;9.830;2023-03-08T04:13:48;-0.70;99.90
21635;DHT22;10979;48.306;9.830;2023-03-08T04:16:18;-0.70;99.90
21635;DHT22;10979;48.306;9.830;2023-03-08T04:18:45;-0.70;99.90
21635;DHT22;10979;48.306;9.830;2023-03-08T04:21:11;-0.80;99.90
21635;DHT22;10979;48.306;9.830;2023-03-08T04:23:37;-0.70;99.90
21635;DHT22;10979;48.306;9.830;2023-03-08T04:26:03;-0.70;99.90
21635;DHT22;10979;48.306;9.830;2023-03-08T04:28:30;-0.60;99.90
21635;DHT22;10979;48.306;9.830;2023-03-08T04:30:56;-0.60;99.90
21635;DHT22;10979;48.306;9.830;2023-03-08T04:33:22;-0.50;99.90
21635;DHT22;10979;48.306;9.830;2023-03-08T04:35:48;-0.50;99.90
21635;DHT22;10979;48.306;9.830;2023-03-08T04:38:14;-0.50;99.90
21635;DHT22;10979;48.306;9.830;2023-03-08T04:40:45;-0.50;99.90
21635;DHT22;10979;48.306;9.830;2023-03-08T04:43:29;-0.50;99.90
21635;DHT22;10979;48.306;9.830;2023-03-08T04:45:55;-0.40;99.90
21635;DHT22;10979;48.306;9.830;2023-03-08T04:48:20;-0.40;99.90
21635;DHT22;10979;48.306;9.830;2023-03-08T04:51:00;-0.40;99.90
21635;DHT22;10979;48.306;9.830;2023-03-08T04:53:27;-0.50;99.90
21635;DHT22;10979;48.306;9.830;2023-03-08T04:55:53;-0.50;99.90
21635;DHT22;10979;48.306;9.830;2023-03-08T04:58:20;-0.40;99.90
21635;DHT22;10979;48.306;9.830;2023-03-08T05:00:46;-0.30;99.90
21635;DHT22;10979;48.306;9.830;2023-03-08T05:03:11;-0.40;99.90
21635;DHT22;10979;48.306;9.830;2023-03-08T05:05:47;-0.30;99.90
21635;DHT22;10979;48.306;9.830;2023-03-08T05:08:12;-0.40;99.90
21635;DHT22;10979;48.306;9.830;2023-03-08T05:10:38;-0.30;99.90
21635;DHT22;10979;48.306;9.830;2023-03-08T05:13:04;-0.20;99.90
21635;DHT22;10979;48.306;9.830;2023-03-08T05:25:42;0.20;99.90
21635;DHT22;10979;48.306;9.830;2023-03-08T05:48:23;0.40;99.90
21635;DHT22;10979;48.306;9.830;2023-03-08T05:50:49;0.50;99.90
21635;DHT22;10979;48.306;9.830;2023-03-08T05:53:15;0.50;99.90
21635;DHT22;10979;48.306;9.830;2023-03-08T05:55:43;0.50;99.90
21635;DHT22;10979;48.306;9.830;2023-03-08T05:58:09;0.50;99.90
21635;DHT22;10979;48.306;9.830;2023-03-08T06:00:34;0.50;99.90
21635;DHT22;10979;48.306;9.830;2023-03-08T06:03:00;0.60;99.90
21635;DHT22;10979;48.306;9.830;2023-03-08T06:05:32;0.60;99.90
21635;DHT22;10979;48.306;9.830;2023-03-08T06:07:58;0.70;99.90
21635;DHT22;10979;48.306;9.830;2023-03-08T06:10:24;0.70;99.90
21635;DHT22;10979;48.306;9.830;2023-03-08T06:12:50;0.70;99.90
21635;DHT22;10979;48.306;9.830;2023-03-08T06:15:16;0.80;99.90
21635;DHT22;10979;48.306;9.830;2023-03-08T06:17:41;0.80;99.90
21635;DHT22;10979;48.306;9.830;2023-03-08T06:20:08;0.80;99.90
21635;DHT22;10979;48.306;9.830;2023-03-08T06:22:34;0.90;99.90
21635;DHT22;10979;48.306;9.830;2023-03-08T06:25:00;0.90;99.90
21635;DHT22;10979;48.306;9.830;2023-03-08T06:27:26;1.00;99.90
21635;DHT22;10979;48.306;9.830;2023-03-08T06:29:51;1.00;99.90
21635;DHT22;10979;48.306;9.830;2023-03-08T06:32:17;1.10;99.90
21635;DHT22;10979;48.306;9.830;2023-03-08T06:34:43;1.10;99.90
21635;DHT22;10979;48.306;9.830;2023-03-08T06:37:09;1.20;99.90
21635;DHT22;10979;48.306;9.830;2023-03-08T06:39:35;1.30;99.90
21635;DHT22;10979;48.306;9.830;2023-03-08T06:42:00;1.30;99.90
21635;DHT22;10979;48.306;9.830;2023-03-08T06:44:28;1.40;99.90
21635;DHT22;10979;48.306;9.830;2023-03-08T06:46:54;1.40;99.90
21635;DHT22;10979;48.306;9.830;2023-03-08T06:49:19;1.50;99.90
21635;DHT22;10979;48.306;9.830;2023-03-08T06:51:45;1.50;99.90
21635;DHT22;10979;48.306;9.830;2023-03-08T06:54:11;1.60;99.90
21635;DHT22;10979;48.306;9.830;2023-03-08T06:56:44;1.70;99.90
21635;DHT22;10979;48.306;9.830;2023-03-08T06:59:11;1.80;99.90
21635;DHT22;10979;48.306;9.830;2023-03-08T07:01:37;2.00;99.90
21635;DHT22;10979;48.306;9.830;2023-03-08T07:04:03;2.00;99.90
21635;DHT22;10979;48.306;9.830;2023-03-08T07:06:28;2.10;99.90
21635;DHT22;10979;48.306;9.830;2023-03-08T07:08:54;2.20;99.90
21635;DHT22;10979;48.306;9.830;2023-03-08T07:11:20;2.30;99.90
21635;DHT22;10979;48.306;9.830;2023-03-08T07:13:45;2.50;99.90
21635;DHT22;10979;48.306;9.830;2023-03-08T07:16:12;2.60;99.90
21635;DHT22;10979;48.306;9.830;2023-03-08T07:18:38;2.70;99.90
21635;DHT22;10979;48.306;9.830;2023-03-08T07:21:04;2.90;99.90
21635;DHT22;10979;48.306;9.830;2023-03-08T07:23:30;3.20;99.90
21635;DHT22;10979;48.306;9.830;2023-03-08T07:25:55;3.50;99.90
21635;DHT22;10979;48.306;9.830;2023-03-08T07:28:21;3.50;99.90
21635;DHT22;10979;48.306;9.830;2023-03-08T07:30:50;3.30;99.90
21635;DHT22;10979;48.306;9.830;2023-03-08T07:33:18;3.10;99.90
21635;DHT22;10979;48.306;9.830;2023-03-08T07:35:44;3.30;99.90
21635;DHT22;10979;48.306;9.830;2023-03-08T07:38:13;3.40;99.90
21635;DHT22;10979;48.306;9.830;2023-03-08T07:40:39;3.60;99.90
21635;DHT22;10979;48.306;9.830;2023-03-08T07:43:05;3.70;99.90
21635;DHT22;10979;48.306;9.830;2023-03-08T07:45:31;3.90;99.90
21635;DHT22;10979;48.306;9.830;2023-03-08T07:47:56;3.70;99.90
21635;DHT22;10979;48.306;9.830;2023-03-08T07:50:22;3.60;99.90
21635;DHT22;10979;48.306;9.830;2023-03-08T07:52:48;3.80;99.90
21635;DHT22;10979;48.306;9.830;2023-03-08T07:55:14;3.80;99.90
21635;DHT22;10979;48.306;9.830;2023-03-08T07:57:39;3.90;99.90
21635;DHT22;10979;48.306;9.830;2023-03-08T08:00:06;3.60;99.90
21635;DHT22;10979;48.306;9.830;2023-03-08T08:02:35;3.60;99.90
21635;DHT22;10979;48.306;9.830;2023-03-08T08:05:02;3.50;99.90
21635;DHT22;10979;48.306;9.830;2023-03-08T08:07:28;3.70;99.90
21635;DHT22;10979;48.306;9.830;2023-03-08T08:09:53;3.80;99.90
21635;DHT22;10979;48.306;9.830;2023-03-08T08:12:19;3.90;99.90
21635;DHT22;10979;48.306;9.830;2023-03-08T08:14:45;4.00;99.90
21635;DHT22;10979;48.306;9.830;2023-03-08T08:17:10;4.10;99.90
21635;DHT22;10979;48.306;9.830;2023-03-08T08:19:37;4.10;99.90
21635;DHT22;10979;48.306;9.830;2023-03-08T08:22:02;4.10;99.90
21635;DHT22;10979;48.306;9.830;2023-03-08T08:24:29;4.10;99.90
21635;DHT22;10979;48.306;9.830;2023-03-08T08:26:55;4.20;99.90
21635;DHT22;10979;48.306;9.830;2023-03-08T08:29:21;4.20;99.90
21635;DHT22;10979;48.306;9.830;2023-03-08T08:31:47;4.40;99.90
21635;DHT22;10979;48.306;9.830;2023-03-08T08:34:13;4.30;99.90
21635;DHT22;10979;48.306;9.830;2023-03-08T08:36:38;4.20;99.90
21635;DHT22;10979;48.306;9.830;2023-03-08T08:39:04;4.20;99.90
21635;DHT22;10979;48.306;9.830;2023-03-08T08:41:30;4.30;99.90
21635;DHT22;10979;48.306;9.830;2023-03-08T08:43:57;4.20;99.90
21635;DHT22;10979;48.306;9.830;2023-03-08T08:46:24;4.30;99.90
21635;DHT22;10979;48.306;9.830;2023-03-08T08:48:50;4.40;99.90
21635;DHT22;10979;48.306;9.830;2023-03-08T08:51:15;4.50;99.90
21635;DHT22;10979;48.306;9.830;2023-03-08T08:53:41;4.60;99.90
21635;DHT22;10979;48.306;9.830;2023-03-08T08:56:13;4.80;99.90
21635;DHT22;10979;48.306;9.830;2023-03-08T08:58:39;5.10;99.90
21635;DHT22;10979;48.306;9.830;2023-03-08T09:01:14;5.10;99.90
21635;DHT22;10979;48.306;9.830;2023-03-08T09:03:40;4.90;99.90
21635;DHT22;10979;48.306;9.830;2023-03-08T09:06:06;4.80;99.90
21635;DHT22;10979;48.306;9.830;2023-03-08T09:08:32;4.90;99.90
21635;DHT22;10979;48.306;9.830;2023-03-08T09:11:02;4.90;99.90
21635;DHT22;10979;48.306;9.830;2023-03-08T09:13:29;4.90;99.90
21635;DHT22;10979;48.306;9.830;2023-03-08T09:15:54;5.10;99.90
21635;DHT22;10979;48.306;9.830;2023-03-08T09:18:20;5.40;99.90
21635;DHT22;10979;48.306;9.830;2023-03-08T09:20:45;5.60;99.90
21635;DHT22;10979;48.306;9.830;2023-03-08T09:23:11;5.60;99.90
21635;DHT22;10979;48.306;9.830;2023-03-08T09:25:36;5.60;99.90
21635;DHT22;10979;48.306;9.830;2023-03-08T09:28:02;5.70;99.90
21635;DHT22;10979;48.306;9.830;2023-03-08T09:30:27;5.90;99.90
21635;DHT22;10979;48.306;9.830;2023-03-08T09:32:53;6.20;99.90
21635;DHT22;10979;48.306;9.830;2023-03-08T09:35:19;6.20;99.90
21635;DHT22;10979;48.306;9.830;2023-03-08T09:37:44;6.40;99.90
21635;DHT22;10979;48.306;9.830;2023-03-08T09:40:20;6.70;99.90
21635;DHT22;10979;48.306;9.830;2023-03-08T09:42:47;6.80;99.90
21635;DHT22;10979;48.306;9.830;2023-03-08T09:45:26;6.90;99.90
21635;DHT22;10979;48.306;9.830;2023-03-08T09:48:12;7.10;99.90
21635;DHT22;10979;48.306;9.830;2023-03-08T09:50:49;7.30;99.90
21635;DHT22;10979;48.306;9.830;2023-03-08T09:53:56;7.40;99.90
21635;DHT22;10979;48.306;9.830;2023-03-08T09:59:20;7.50;99.90
21635;DHT22;10979;48.306;9.830;2023-03-08T10:07:30;7.80;99.90
21635;DHT22;10979;48.306;9.830;2023-03-08T10:15:39;8.20;99.90
21635;DHT22;10979;48.306;9.830;2023-03-08T10:18:15;8.20;99.90
21635;DHT22;10979;48.306;9.830;2023-03-08T10:20:42;8.30;99.90
21635;DHT22;10979;48.306;9.830;2023-03-08T10:23:17;8.00;99.90
21635;DHT22;10979;48.306;9.830;2023-03-08T10:25:44;8.30;99.90
21635;DHT22;10979;48.306;9.830;2023-03-08T10:28:22;8.40;99.90
21635;DHT22;10979;48.306;9.830;2023-03-08T10:30:58;8.50;99.90
21635;DHT22;10979;48.306;9.830;2023-03-08T10:33:29;8.60;99.90
21635;DHT22;10979;48.306;9.830;2023-03-08T10:36:03;8.70;99.90
21635;DHT22;10979;48.306;9.830;2023-03-08T10:38:32;8.80;99.90
21635;DHT22;10979;48.306;9.830;2023-03-08T10:41:14;8.80;99.90
21635;DHT22;10979;48.306;9.830;2023-03-08T10:43:52;8.70;99.90
21635;DHT22;10979;48.306;9.830;2023-03-08T10:46:23;9.00;99.90
21635;DHT22;10979;48.306;9.830;2023-03-08T10:48:49;9.00;99.90
21635;DHT22;10979;48.306;9.830;2023-03-08T10:53:58;9.00;99.90
21635;DHT22;10979;48.306;9.830;2023-03-08T10:56:36;9.20;99.90
21635;DHT22;10979;48.306;9.830;2023-03-08T10:59:03;9.30;99.90
21635;DHT22;10979;48.306;9.830;2023-03-08T11:01:33;9.30;99.90
21635;DHT22;10979;48.306;9.830;2023-03-08T11:04:05;9.30;99.90
21635;DHT22;10979;48.306;9.830;2023-03-08T11:06:33;9.40;99.90
21635;DHT22;10979;48.306;9.830;2023-03-08T11:09:01;9.40;99.90
21635;DHT22;10979;48.306;9.830;2023-03-08T11:11:28;9.90;99.90
21635;DHT22;10979;48.306;9.830;2023-03-08T11:13:54;9.70;99.90
21635;DHT22;10979;48.306;9.830;2023-03-08T11:19:46;10.00;99.90
21635;DHT22;10979;48.306;9.830;2023-03-08T11:22:29;9.70;99.90
21635;DHT22;10979;48.306;9.830;2023-03-08T11:25:00;9.40;99.90
21635;DHT22;10979;48.306;9.830;2023-03-08T11:30:26;9.20;99.90
21635;DHT22;10979;48.306;9.830;2023-03-08T11:38:38;9.10;99.90
21635;DHT22;10979;48.306;9.830;2023-03-08T11:41:18;9.20;99.90
21635;DHT22;10979;48.306;9.830;2023-03-08T11:52:14;9.30;99.90
21635;DHT22;10979;48.306;9.830;2023-03-08T11:57:32;9.40;99.90
21635;DHT22;10979;48.306;9.830;2023-03-08T12:00:11;9.20;99.90
21635;DHT22;10979;48.306;9.830;2023-03-08T12:02:43;9.20;99.90
21635;DHT22;10979;48.306;9.830;2023-03-08T12:07:54;9.30;99.90
21635;DHT22;10979;48.306;9.830;2023-03-08T12:10:28;9.50;99.90
21635;DHT22;10979;48.306;9.830;2023-03-08T12:13:13;9.30;99.90
21635;DHT22;10979;48.306;9.830;2023-03-08T12:15:48;9.40;99.90
21635;DHT22;10979;48.306;9.830;2023-03-08T12:21:23;9.80;99.90
21635;DHT22;10979;48.306;9.830;2023-03-08T12:26:59;9.90;99.90
21635;DHT22;10979;48.306;9.830;2023-03-08T12:31:59;9.80;99.90
21635;DHT22;10979;48.306;9.830;2023-03-08T12:34:26;9.70;99.90
21635;DHT22;10979;48.306;9.830;2023-03-08T12:36:53;9.70;99.90
21635;DHT22;10979;48.306;9.830;2023-03-08T12:39:28;9.60;99.90
21635;DHT22;10979;48.306;9.830;2023-03-08T12:44:38;10.00;99.90
21635;DHT22;10979;48.306;9.830;2023-03-08T12:49:54;9.60;99.90
21635;DHT22;10979;48.306;9.830;2023-03-08T12:52:25;9.60;99.90
21635;DHT22;10979;48.306;9.830;2023-03-08T12:55:18;9.50;99.90
21635;DHT22;10979;48.306;9.830;2023-03-08T12:57:48;9.50;99.90
21635;DHT22;10979;48.306;9.830;2023-03-08T13:00:35;9.50;99.90
21635;DHT22;10979;48.306;9.830;2023-03-08T13:05:41;9.40;99.90
21635;DHT22;10979;48.306;9.830;2023-03-08T13:10:39;9.50;99.90
21635;DHT22;10979;48.306;9.830;2023-03-08T13:15:34;9.60;99.90
21635;DHT22;10979;48.306;9.830;2023-03-08T13:18:01;9.60;99.90
21635;DHT22;10979;48.306;9.830;2023-03-08T13:20:58;9.80;99.90
21635;DHT22;10979;48.306;9.830;2023-03-08T13:23:35;9.80;99.90
21635;DHT22;10979;48.306;9.830;2023-03-08T13:26:23;10.00;99.90
21635;DHT22;10979;48.306;9.830;2023-03-08T13:28:51;10.30;99.90
21635;DHT22;10979;48.306;9.830;2023-03-08T13:31:22;10.60;99.90
21635;DHT22;10979;48.306;9.830;2023-03-08T13:33:53;10.80;99.90
21635;DHT22;10979;48.306;9.830;2023-03-08T13:36:28;11.00;99.90
21635;DHT22;10979;48.306;9.830;2023-03-08T13:39:24;11.00;99.90
21635;DHT22;10979;48.306;9.830;2023-03-08T13:41:50;10.90;99.90
21635;DHT22;10979;48.306;9.830;2023-03-08T13:44:18;10.80;99.90
21635;DHT22;10979;48.306;9.830;2023-03-08T13:46:47;10.60;99.90
21635;DHT22;10979;48.306;9.830;2023-03-08T13:49:15;10.70;99.90
21635;DHT22;10979;48.306;9.830;2023-03-08T13:51:43;10.80;99.90
21635;DHT22;10979;48.306;9.830;2023-03-08T13:54:24;11.30;99.90
21635;DHT22;10979;48.306;9.830;2023-03-08T13:56:54;11.30;99.90
21635;DHT22;10979;48.306;9.830;2023-03-08T13:59:21;11.50;99.90
21635;DHT22;10979;48.306;9.830;2023-03-08T14:01:48;11.50;99.90
21635;DHT22;10979;48.306;9.830;2023-03-08T14:04:22;11.50;99.90
21635;DHT22;10979;48.306;9.830;2023-03-08T14:06:54;11.40;99.90
21635;DHT22;10979;48.306;9.830;2023-03-08T14:09:20;11.30;99.90
21635;DHT22;10979;48.306;9.830;2023-03-08T14:11:59;11.20;99.90
21635;DHT22;10979;48.306;9.830;2023-03-08T14:14:30;11.40;99.90
21635;DHT22;10979;48.306;9.830;2023-03-08T14:16:57;11.10;99.90
21635;DHT22;10979;48.306;9.830;2023-03-08T14:19:28;11.10;99.90
21635;DHT22;10979;48.306;9.830;2023-03-08T14:22:02;11.10;99.90
21635;DHT22;10979;48.306;9.830;2023-03-08T14:24:31;11.20;99.90
21635;DHT22;10979;48.306;9.830;2023-03-08T14:27:29;11.00;99.90
21635;DHT22;10979;48.306;9.830;2023-03-08T14:29:48;11.30;99.90
21635;DHT22;10979;48.306;9.830;2023-03-08T14:34:43;11.50;99.90
21635;DHT22;10979;48.306;9.830;2023-03-08T14:37:26;11.30;99.90
21635;DHT22;10979;48.306;9.830;2023-03-08T14:40:06;11.20;99.90
21635;DHT22;10979;48.306;9.830;2023-03-08T14:42:41;11.20;99.90
21635;DHT22;10979;48.306;9.830;2023-03-08T14:53:38;11.00;99.90
21635;DHT22;10979;48.306;9.830;2023-03-08T14:56:14;11.40;99.90
21635;DHT22;10979;48.306;9.830;2023-03-08T14:58:46;11.80;99.90
21635;DHT22;10979;48.306;9.830;2023-03-08T15:01:26;11.80;99.90
21635;DHT22;10979;48.306;9.830;2023-03-08T15:03:52;12.00;99.90
21635;DHT22;10979;48.306;9.830;2023-03-08T15:06:21;11.90;99.90
21635;DHT22;10979;48.306;9.830;2023-03-08T15:08:48;11.60;99.90
21635;DHT22;10979;48.306;9.830;2023-03-08T15:11:14;11.60;99.90
21635;DHT22;10979;48.306;9.830;2023-03-08T15:13:40;11.40;99.90
21635;DHT22;10979;48.306;9.830;2023-03-08T15:16:09;11.40;99.90
21635;DHT22;10979;48.306;9.830;2023-03-08T15:18:35;11.50;99.90
21635;DHT22;10979;48.306;9.830;2023-03-08T15:21:00;11.30;99.90
21635;DHT22;10979;48.306;9.830;2023-03-08T15:23:28;11.20;99.90
21635;DHT22;10979;48.306;9.830;2023-03-08T15:25:55;11.60;99.90
21635;DHT22;10979;48.306;9.830;2023-03-08T15:28:22;11.50;99.90
21635;DHT22;10979;48.306;9.830;2023-03-08T15:30:49;11.60;99.90
21635;DHT22;10979;48.306;9.830;2023-03-08T15:33:17;11.50;99.90
21635;DHT22;10979;48.306;9.830;2023-03-08T15:35:43;11.30;99.90
21635;DHT22;10979;48.306;9.830;2023-03-08T15:38:14;11.20;99.90
21635;DHT22;10979;48.306;9.830;2023-03-08T15:40:40;11.20;99.90
21635;DHT22;10979;48.306;9.830;2023-03-08T15:43:06;11.30;99.90
21635;DHT22;10979;48.306;9.830;2023-03-08T15:45:32;11.10;99.90
21635;DHT22;10979;48.306;9.830;2023-03-08T15:48:14;10.90;99.90
21635;DHT22;10979;48.306;9.830;2023-03-08T15:50:40;10.90;99.90
21635;DHT22;10979;48.306;9.830;2023-03-08T15:53:07;10.90;99.90
21635;DHT22;10979;48.306;9.830;2023-03-08T15:55:35;10.80;99.90
21635;DHT22;10979;48.306;9.830;2023-03-08T15:58:01;10.70;99.90
21635;DHT22;10979;48.306;9.830;2023-03-08T16:00:28;10.70;99.90
21635;DHT22;10979;48.306;9.830;2023-03-08T16:02:54;10.70;99.90
21635;DHT22;10979;48.306;9.830;2023-03-08T16:05:21;10.70;99.90
21635;DHT22;10979;48.306;9.830;2023-03-08T16:07:56;10.60;99.90
21635;DHT22;10979;48.306;9.830;2023-03-08T16:10:22;10.60;99.90
21635;DHT22;10979;48.306;9.830;2023-03-08T16:12:48;10.50;99.90
21635;DHT22;10979;48.306;9.830;2023-03-08T16:15:13;10.60;99.90
21635;DHT22;10979;48.306;9.830;2023-03-08T16:17:39;10.60;99.90
21635;DHT22;10979;48.306;9.830;2023-03-08T16:20:05;10.50;99.90
21635;DHT22;10979;48.306;9.830;2023-03-08T16:22:34;10.40;99.90
21635;DHT22;10979;48.306;9.830;2023-03-08T16:25:00;10.40;99.90
21635;DHT22;10979;48.306;9.830;2023-03-08T16:27:28;10.40;99.90
21635;DHT22;10979;48.306;9.830;2023-03-08T16:29:54;10.30;99.90
21635;DHT22;10979;48.306;9.830;2023-03-08T16:32:20;10.20;99.90
21635;DHT22;10979;48.306;9.830;2023-03-08T16:34:45;10.20;99.90
21635;DHT22;10979;48.306;9.830;2023-03-08T16:37:19;10.20;99.90
21635;DHT22;10979;48.306;9.830;2023-03-08T16:39:48;10.20;99.90
21635;DHT22;10979;48.306;9.830;2023-03-08T16:42:14;10.20;99.90
21635;DHT22;10979;48.306;9.830;2023-03-08T16:44:40;10.20;99.90
21635;DHT22;10979;48.306;9.830;2023-03-08T16:47:06;10.10;99.90
21635;DHT22;10979;48.306;9.830;2023-03-08T16:49:32;10.10;99.90
21635;DHT22;10979;48.306;9.830;2023-03-08T16:51:58;10.20;99.90
21635;DHT22;10979;48.306;9.830;2023-03-08T16:54:24;10.10;99.90
21635;DHT22;10979;48.306;9.830;2023-03-08T16:56:49;10.00;99.90
21635;DHT22;10979;48.306;9.830;2023-03-08T16:59:15;9.80;99.90
21635;DHT22;10979;48.306;9.830;2023-03-08T17:01:44;9.50;99.90
21635;DHT22;10979;48.306;9.830;2023-03-08T17:04:11;9.40;99.90
21635;DHT22;10979;48.306;9.830;2023-03-08T17:06:38;9.30;99.90
21635;DHT22;10979;48.306;9.830;2023-03-08T17:09:04;9.20;99.90
21635;DHT22;10979;48.306;9.830;2023-03-08T17:11:32;9.10;99.90
21635;DHT22;10979;48.306;9.830;2023-03-08T17:14:00;9.10;99.90
21635;DHT22;10979;48.306;9.830;2023-03-08T17:16:28;9.00;99.90
21635;DHT22;10979;48.306;9.830;2023-03-08T17:18:55;8.90;99.90
21635;DHT22;10979;48.306;9.830;2023-03-08T17:21:21;8.90;99.90
21635;DHT22;10979;48.306;9.830;2023-03-08T17:23:48;8.80;99.90
21635;DHT22;10979;48.306;9.830;2023-03-08T17:26:15;8.70;99.90
21635;DHT22;10979;48.306;9.830;2023-03-08T17:28:41;8.70;99.90
21635;DHT22;10979;48.306;9.830;2023-03-08T17:31:12;8.60;99.90
21635;DHT22;10979;48.306;9.830;2023-03-08T17:33:38;8.70;99.90
21635;DHT22;10979;48.306;9.830;2023-03-08T17:36:04;8.70;99.90
21635;DHT22;10979;48.306;9.830;2023-03-08T17:38:31;8.70;99.90
21635;DHT22;10979;48.306;9.830;2023-03-08T17:40:58;8.70;99.90
21635;DHT22;10979;48.306;9.830;2023-03-08T17:43:24;8.60;99.90
21635;DHT22;10979;48.306;9.830;2023-03-08T17:46:24;8.60;99.90
21635;DHT22;10979;48.306;9.830;2023-03-08T17:48:52;8.60;99.90
21635;DHT22;10979;48.306;9.830;2023-03-08T17:51:21;8.60;99.90
21635;DHT22;10979;48.306;9.830;2023-03-08T17:53:47;8.60;99.90
21635;DHT22;10979;48.306;9.830;2023-03-08T17:56:15;8.60;99.90